EGZJ weather

[Duplicate] Dornoch Airfield
Dornoch Airfield, Scotland, United Kingdom

Public forecast

Using degrees Celsius for public forecast. Weather courtesy of forecast.io.

METAR (pilot weather report)

Closest report is Inverness Airport, 19.8 nm (36.7 km) S. Retrieved 2019/05/19 18:20 UTC (0 seconds ago):

EGPE 191820Z VRB01KT 8000 -RA FEW001 SCT022CB BKN037 13/12 Q1010

TAF (pilot weather forecast)

Forecast is more than 12 hours old.

Closest forecast is RAF Kinloss, 20.0 nm (37.1 km) SE. Retrieved 2011/10/06 06:15 UTC (8 years ago):

TAF TAF EGQK 060601Z 0606/0618 27015G25KT 9999 SCT030 TEMPO 0606/0618 7000 SHRA SCT022 PROB30 TEMPO 0609/0616 27025G32KT 4000 +SHRA SCT014CB BECMG 0614/0617 30020G30KT